createdAt,value
2018-04-25T00:00:08.029Z,64.23
2018-04-25T00:02:36.303Z,64.60
2018-04-25T00:05:06.406Z,64.88
2018-04-25T00:07:34.679Z,65.23
2018-04-25T00:10:06.795Z,65.56
2018-04-25T00:12:35.147Z,65.61
2018-04-25T00:15:07.260Z,65.77
2018-04-25T00:17:35.527Z,65.62
2018-04-25T00:20:06.386Z,65.39
2018-04-25T00:22:34.636Z,65.53
2018-04-25T00:25:07.695Z,65.08
2018-04-25T00:27:35.966Z,65.20
2018-04-25T00:30:07.391Z,65.03
2018-04-25T00:32:36.244Z,65.09
2018-04-25T00:35:06.969Z,65.04
2018-04-25T00:37:35.375Z,65.27
2018-04-25T00:40:07.287Z,64.69
2018-04-25T00:42:35.578Z,65.34
2018-04-25T00:45:08.447Z,65.51
2018-04-25T00:47:36.743Z,65.71
2018-04-25T00:50:06.872Z,65.33
2018-04-25T00:52:35.474Z,65.05
2018-04-25T00:55:07.170Z,65.29
2018-04-25T00:57:35.488Z,64.92
2018-04-25T01:00:07.736Z,64.86
2018-04-25T01:02:36.031Z,64.95
2018-04-25T01:05:07.873Z,64.75
2018-04-25T01:07:36.170Z,64.77
2018-04-25T01:10:06.115Z,64.77
2018-04-25T01:12:34.410Z,64.61
2018-04-25T01:15:07.247Z,64.67
2018-04-25T01:17:35.531Z,64.80
2018-04-25T01:20:06.167Z,64.79
2018-04-25T01:22:35.092Z,64.96
2018-04-25T01:25:09.006Z,64.69
2018-04-25T01:27:38.045Z,64.52
2018-04-25T01:30:06.322Z,64.54
2018-04-25T01:32:37.547Z,64.34
2018-04-25T01:35:06.983Z,64.31
2018-04-25T01:37:47.317Z,64.37
2018-04-25T01:40:15.571Z,64.52
2018-04-25T01:42:59.448Z,64.56
2018-04-25T01:49:04.040Z,64.71
2018-04-25T01:51:43.944Z,64.97
2018-04-25T01:54:23.881Z,64.56
2018-04-25T01:57:03.827Z,64.69
2018-04-25T01:59:43.813Z,64.91
2018-04-25T02:02:11.604Z,64.72
2018-04-25T02:04:40.091Z,64.68
2018-04-25T02:07:08.381Z,64.59
2018-04-25T02:09:36.655Z,64.63
2018-04-25T02:12:04.955Z,64.75
2018-04-25T02:14:33.623Z,64.94
2018-04-25T02:17:01.895Z,65.05
2018-04-25T02:19:30.188Z,65.24
2018-04-25T02:21:58.461Z,65.50
2018-04-25T02:24:26.744Z,65.48
2018-04-25T02:26:55.204Z,65.43
2018-04-25T02:29:23.479Z,65.52
2018-04-25T02:31:51.915Z,65.52
2018-04-25T02:34:20.190Z,65.13
2018-04-25T02:36:48.475Z,65.22
2018-04-25T02:39:17.021Z,65.76
2018-04-25T02:41:45.325Z,65.58
2018-04-25T02:44:13.610Z,65.48
2018-04-25T02:46:41.891Z,65.67
2018-04-25T02:49:10.333Z,65.46
2018-04-25T02:51:38.610Z,65.65
2018-04-25T02:54:06.891Z,65.76
2018-04-25T02:56:35.164Z,65.36
2018-04-25T02:59:03.576Z,65.50
2018-04-25T03:01:31.860Z,65.52
2018-04-25T03:04:00.599Z,65.59
2018-04-25T03:06:28.879Z,65.59
2018-04-25T03:08:57.164Z,65.74
2018-04-25T03:11:25.425Z,65.74
2018-04-25T03:13:53.707Z,65.95
2018-04-25T03:16:21.982Z,65.95
2018-04-25T03:18:50.267Z,65.96
2018-04-25T03:21:18.537Z,66.08
2018-04-25T03:23:46.831Z,65.99
2018-04-25T03:26:15.121Z,66.07
2018-04-25T03:28:43.398Z,66.31
2018-04-25T03:31:11.699Z,66.24
2018-04-25T03:33:39.974Z,66.27
2018-04-25T03:36:08.473Z,66.50
2018-04-25T03:38:36.781Z,66.37
2018-04-25T03:41:05.088Z,66.43
2018-04-25T03:43:33.477Z,66.65
2018-04-25T03:46:01.902Z,66.55
2018-04-25T03:48:30.178Z,66.60
2018-04-25T03:50:58.474Z,66.91
2018-04-25T03:53:27.072Z,66.87
2018-04-25T03:55:55.351Z,66.93
2018-04-25T03:58:23.640Z,67.05
2018-04-25T04:00:52.071Z,66.79
2018-04-25T04:03:20.331Z,67.05
2018-04-25T04:05:48.922Z,67.50
2018-04-25T04:08:17.187Z,67.52
2018-04-25T04:10:45.483Z,67.56
2018-04-25T04:13:13.747Z,67.73
2018-04-25T04:15:42.032Z,67.48
2018-04-25T04:18:10.305Z,67.62
2018-04-25T04:20:38.599Z,67.71
2018-04-25T04:23:06.870Z,68.03
2018-04-25T04:25:35.485Z,67.71
2018-04-25T04:28:03.768Z,67.80
2018-04-25T04:30:32.291Z,67.88
2018-04-25T04:33:00.566Z,67.96
2018-04-25T04:35:28.882Z,68.16
2018-04-25T04:37:57.155Z,68.34
2018-04-25T04:40:25.462Z,68.20
2018-04-25T04:42:53.735Z,68.26
2018-04-25T04:45:22.015Z,68.21
2018-04-25T04:47:50.576Z,68.48
2018-04-25T04:50:18.952Z,68.51
2018-04-25T04:52:47.269Z,68.59
2018-04-25T04:55:15.543Z,68.88
2018-04-25T04:57:43.830Z,68.97
2018-04-25T05:00:12.106Z,68.75
2018-04-25T05:02:40.411Z,68.96
2018-04-25T05:05:08.691Z,69.09
2018-04-25T05:07:37.041Z,68.87
2018-04-25T05:10:06.655Z,68.67
2018-04-25T05:12:34.943Z,68.43
2018-04-25T05:15:07.079Z,68.53
2018-04-25T05:17:35.374Z,68.50
2018-04-25T05:20:06.626Z,68.53
2018-04-25T05:22:34.923Z,68.66
2018-04-25T05:25:06.276Z,68.84
2018-04-25T05:27:34.792Z,67.92
2018-04-25T05:30:06.601Z,68.06
2018-04-25T05:32:35.083Z,68.21
2018-04-25T05:35:06.411Z,68.23
2018-04-25T05:37:34.695Z,68.54
2018-04-25T05:40:08.612Z,68.50
2018-04-25T05:42:36.902Z,68.56
2018-04-25T05:45:08.410Z,68.88
2018-04-25T05:47:36.688Z,68.57
2018-04-25T05:50:10.754Z,69.31
2018-04-25T05:52:39.317Z,68.91
2018-04-25T05:55:07.604Z,69.16
2018-04-25T05:57:36.354Z,69.52
2018-04-25T06:00:06.391Z,69.87
2018-04-25T06:02:34.684Z,69.54
2018-04-25T06:05:09.058Z,69.14
2018-04-25T06:07:37.326Z,69.47
2018-04-25T06:10:06.826Z,69.61
2018-04-25T06:12:35.137Z,69.26
2018-04-25T06:15:06.495Z,69.74
2018-04-25T06:17:34.889Z,70.21
2018-04-25T06:20:09.796Z,70.45
2018-04-25T06:22:38.072Z,70.50
2018-04-25T06:25:06.560Z,70.10
2018-04-25T06:27:34.954Z,70.49
2018-04-25T06:30:06.265Z,70.32
2018-04-25T06:32:34.558Z,69.65
2018-04-25T06:35:05.907Z,69.68
2018-04-25T06:37:34.190Z,69.49
2018-04-25T06:40:08.958Z,69.87
2018-04-25T06:42:37.237Z,70.28
2018-04-25T06:45:07.250Z,70.15
2018-04-25T06:47:36.026Z,70.05
2018-04-25T06:50:06.479Z,70.51
2018-04-25T06:52:34.764Z,70.86
2018-04-25T06:55:10.022Z,70.30
2018-04-25T06:57:38.630Z,70.21
2018-04-25T07:00:06.910Z,69.64
2018-04-25T07:02:35.211Z,69.40
2018-04-25T07:05:07.489Z,69.88
2018-04-25T07:07:35.971Z,69.62
2018-04-25T07:10:05.782Z,69.63
2018-04-25T07:12:34.076Z,68.88
2018-04-25T07:15:05.531Z,69.40
2018-04-25T07:17:33.814Z,69.73
2018-04-25T07:20:07.379Z,73.11
2018-04-25T07:22:36.006Z,74.17
2018-04-25T07:25:05.694Z,74.96
2018-04-25T07:27:33.967Z,74.34
2018-04-25T07:30:08.997Z,74.62
2018-04-25T07:32:37.274Z,74.61
2018-04-25T07:35:06.289Z,74.55
2018-04-25T07:37:34.555Z,73.52
2018-04-25T07:40:06.659Z,73.47
2018-04-25T07:42:35.119Z,73.58
2018-04-25T07:45:07.407Z,74.16
2018-04-25T07:47:35.677Z,74.03
2018-04-25T07:50:05.506Z,73.35
2018-04-25T07:52:33.966Z,72.11
2018-04-25T07:55:09.136Z,72.93
2018-04-25T07:57:37.484Z,72.83
2018-04-25T08:00:05.863Z,72.88
2018-04-25T08:02:34.129Z,73.68
2018-04-25T08:05:05.557Z,73.33
2018-04-25T08:07:34.006Z,75.68
2018-04-25T08:10:09.120Z,79.20
2018-04-25T08:12:49.276Z,80.68
2018-04-25T08:15:29.110Z,81.21
2018-04-25T08:18:09.047Z,82.97
2018-04-25T08:20:48.904Z,85.44
2018-04-25T08:23:17.370Z,86.19
2018-04-25T08:25:45.664Z,86.10
2018-04-25T08:28:13.946Z,86.87
2018-04-25T08:30:42.504Z,87.78
2018-04-25T08:33:10.913Z,88.12
2018-04-25T08:35:39.188Z,88.04
2018-04-25T08:38:07.484Z,87.43
2018-04-25T08:40:35.986Z,87.41
2018-04-25T08:43:04.446Z,85.67
2018-04-25T08:45:32.717Z,86.53
2018-04-25T08:48:01.002Z,86.00
2018-04-25T08:50:29.273Z,86.64
2018-04-25T08:52:57.583Z,84.45
2018-04-25T08:55:25.859Z,84.85
2018-04-25T08:57:54.171Z,82.67
2018-04-25T09:00:22.452Z,83.94
2018-04-25T09:02:50.749Z,83.35
2018-04-25T09:05:19.016Z,82.77
2018-04-25T09:07:47.571Z,81.30
2018-04-25T09:10:15.987Z,80.25
2018-04-25T09:12:44.467Z,80.29
2018-04-25T09:15:12.744Z,77.76
2018-04-25T09:17:41.072Z,78.13
2018-04-25T09:20:09.383Z,77.41
2018-04-25T09:22:37.657Z,76.12
2018-04-25T09:25:05.970Z,76.33
2018-04-25T09:27:34.246Z,77.55
2018-04-25T09:30:05.644Z,75.16
2018-04-25T09:32:33.913Z,75.23
2018-04-25T09:35:06.019Z,74.37
2018-04-25T09:37:34.294Z,75.94
2018-04-25T09:40:05.819Z,73.84
2018-04-25T09:42:34.120Z,73.04
2018-04-25T09:45:09.260Z,72.24
2018-04-25T09:47:37.775Z,72.78
2018-04-25T09:50:06.091Z,73.04
2018-04-25T09:52:34.367Z,73.81
2018-04-25T09:55:06.319Z,72.82
2018-04-25T09:57:34.870Z,73.65
2018-04-25T10:00:06.615Z,70.78
2018-04-25T10:02:36.803Z,68.36
2018-04-25T10:05:06.142Z,67.92
2018-04-25T10:07:34.526Z,67.22
2018-04-25T10:10:06.896Z,68.38
2018-04-25T10:12:35.185Z,67.66
2018-04-25T10:15:07.191Z,65.90
2018-04-25T10:17:35.485Z,64.90
2018-04-25T10:20:06.672Z,65.02
2018-04-25T10:22:35.323Z,64.17
2018-04-25T10:25:07.087Z,62.46
2018-04-25T10:27:35.607Z,61.56
2018-04-25T10:30:07.431Z,62.35
2018-04-25T10:32:35.836Z,61.62
2018-04-25T10:35:06.718Z,61.90
2018-04-25T10:37:35.016Z,62.10
2018-04-25T10:40:07.119Z,62.79
2018-04-25T10:42:35.420Z,62.48
2018-04-25T10:45:07.468Z,60.37
2018-04-25T10:47:35.749Z,61.54
2018-04-25T10:50:05.689Z,60.49
2018-04-25T10:52:34.082Z,56.32
2018-04-25T10:55:05.803Z,56.05
2018-04-25T10:57:34.398Z,56.43
2018-04-25T11:00:08.316Z,55.76
2018-04-25T11:02:37.034Z,55.74
2018-04-25T11:05:05.922Z,57.99
2018-04-25T11:07:34.206Z,55.83
2018-04-25T11:10:06.443Z,57.02
2018-04-25T11:12:34.728Z,59.42
2018-04-25T11:15:07.479Z,60.44
2018-04-25T11:17:35.758Z,62.46
2018-04-25T11:20:05.710Z,65.14
2018-04-25T11:22:34.034Z,64.61
2018-04-25T11:25:05.780Z,64.75
2018-04-25T11:27:34.101Z,66.30
2018-04-25T11:30:05.810Z,64.69
2018-04-25T11:32:34.094Z,65.68
2018-04-25T11:35:09.251Z,63.63
2018-04-25T11:37:37.565Z,64.07
2018-04-25T11:40:05.909Z,62.90
2018-04-25T11:42:34.530Z,60.24
2018-04-25T11:45:06.368Z,58.84
2018-04-25T11:47:34.639Z,59.85
2018-04-25T11:50:06.605Z,60.82
2018-04-25T11:52:34.874Z,61.35
2018-04-25T11:55:06.986Z,59.13
2018-04-25T11:57:35.268Z,58.35
2018-04-25T12:00:07.399Z,58.47
2018-04-25T12:02:35.679Z,58.79
2018-04-25T12:05:07.647Z,58.41
2018-04-25T12:07:36.180Z,54.70
2018-04-25T12:10:06.217Z,55.21
2018-04-25T12:12:34.903Z,55.76
2018-04-25T12:15:07.063Z,56.67
2018-04-25T12:17:35.361Z,57.81
2018-04-25T12:20:06.615Z,57.14
2018-04-25T12:22:35.011Z,56.31
2018-04-25T12:25:06.728Z,55.44
2018-04-25T12:27:35.144Z,57.32
2018-04-25T12:30:07.237Z,56.68
2018-04-25T12:32:35.533Z,56.16
2018-04-25T12:35:07.671Z,54.72
2018-04-25T12:37:35.978Z,54.38
2018-04-25T12:40:05.790Z,56.53
2018-04-25T12:42:34.087Z,55.30
2018-04-25T12:45:07.326Z,54.88
2018-04-25T12:47:35.639Z,55.15
2018-04-25T12:50:06.863Z,54.56
2018-04-25T12:52:35.188Z,52.95
2018-04-25T12:55:07.111Z,54.52
2018-04-25T12:57:35.418Z,54.32
2018-04-25T13:00:07.673Z,52.85
2018-04-25T13:02:35.955Z,52.96
2018-04-25T13:05:07.784Z,52.52
2018-04-25T13:07:36.059Z,51.55
2018-04-25T13:10:05.910Z,53.69
2018-04-25T13:12:34.195Z,53.23
2018-04-25T13:15:05.713Z,53.69
2018-04-25T13:17:34.275Z,53.35
2018-04-25T13:20:06.407Z,50.73
2018-04-25T13:22:34.698Z,50.25
2018-04-25T13:25:05.935Z,50.55
2018-04-25T13:27:34.220Z,51.07
2018-04-25T13:30:09.413Z,51.87
2018-04-25T13:32:38.579Z,53.58
2018-04-25T13:35:06.878Z,52.35
2018-04-25T13:37:35.228Z,51.94
2018-04-25T13:40:07.118Z,50.92
2018-04-25T13:42:36.041Z,50.27
2018-04-25T13:45:06.015Z,51.01
2018-04-25T13:47:34.575Z,53.06
2018-04-25T13:50:05.993Z,51.26
2018-04-25T13:52:34.350Z,51.81
2018-04-25T13:55:06.241Z,52.11
2018-04-25T13:57:34.526Z,50.56
2018-04-25T14:00:06.381Z,51.12
2018-04-25T14:02:34.654Z,50.73
2018-04-25T14:05:06.554Z,49.72
2018-04-25T14:07:35.059Z,49.38
2018-04-25T14:10:06.855Z,48.83
2018-04-25T14:12:35.395Z,49.24
2018-04-25T14:15:07.213Z,47.66
2018-04-25T14:17:35.500Z,47.36
2018-04-25T14:20:07.598Z,48.45
2018-04-25T14:22:35.879Z,47.68
2018-04-25T14:25:05.979Z,48.44
2018-04-25T14:27:34.265Z,47.23
2018-04-25T14:30:09.472Z,47.50
2018-04-25T14:32:37.735Z,48.67
2018-04-25T14:35:06.024Z,49.21
2018-04-25T14:37:34.327Z,49.56
2018-04-25T14:40:09.588Z,50.68
2018-04-25T14:42:37.878Z,50.00
2018-04-25T14:45:06.424Z,51.72
2018-04-25T14:47:34.800Z,51.09
2018-04-25T14:50:06.051Z,52.31
2018-04-25T14:52:34.307Z,51.13
2018-04-25T14:55:09.506Z,52.52
2018-04-25T14:57:38.027Z,49.81
2018-04-25T15:00:06.632Z,49.52
2018-04-25T15:02:35.158Z,51.90
2018-04-25T15:05:07.080Z,51.72
2018-04-25T15:07:35.952Z,52.47
2018-04-25T15:10:07.287Z,51.61
2018-04-25T15:12:35.579Z,52.18
2018-04-25T15:15:07.676Z,51.29
2018-04-25T15:17:35.950Z,51.93
2018-04-25T15:20:05.955Z,51.10
2018-04-25T15:22:34.225Z,50.19
2018-04-25T15:25:06.137Z,48.99
2018-04-25T15:27:34.403Z,48.56
2018-04-25T15:30:09.663Z,48.61
2018-04-25T15:32:38.159Z,47.90
2018-04-25T15:35:06.464Z,48.59
2018-04-25T15:37:34.755Z,49.07
2018-04-25T15:40:06.023Z,49.30
2018-04-25T15:42:38.154Z,50.58
2018-04-25T15:45:06.413Z,49.11
2018-04-25T15:47:34.695Z,49.81
2018-04-25T15:50:06.803Z,50.16
2018-04-25T15:52:35.090Z,47.51
2018-04-25T15:55:07.202Z,45.65
2018-04-25T15:57:35.480Z,43.98
2018-04-25T16:00:07.547Z,43.65
2018-04-25T16:02:35.840Z,43.89
2018-04-25T16:05:07.746Z,44.17
2018-04-25T16:07:36.051Z,44.84
2018-04-25T16:10:06.147Z,46.39
2018-04-25T16:12:34.504Z,46.44
2018-04-25T16:15:05.903Z,47.10
2018-04-25T16:17:35.117Z,46.75
2018-04-25T16:20:07.031Z,47.51
2018-04-25T16:22:35.417Z,48.12
2018-04-25T16:25:11.335Z,48.11
2018-04-25T16:27:39.624Z,46.95
2018-04-25T16:30:08.437Z,47.15
2018-04-25T16:32:36.751Z,47.62
2018-04-25T16:35:07.153Z,46.99
2018-04-25T16:37:35.424Z,47.45
2018-04-25T16:40:07.463Z,46.06
2018-04-25T16:42:35.738Z,45.55
2018-04-25T16:45:07.745Z,43.81
2018-04-25T16:47:36.028Z,43.34
2018-04-25T16:50:07.342Z,43.16
2018-04-25T16:52:35.613Z,47.13
2018-04-25T16:55:07.056Z,50.14
2018-04-25T16:57:35.339Z,51.67
2018-04-25T17:00:06.191Z,51.51
2018-04-25T17:02:38.379Z,50.85
2018-04-25T17:05:07.267Z,49.72
2018-04-25T17:07:35.538Z,49.83
2018-04-25T17:10:07.355Z,48.85
2018-04-25T17:12:35.690Z,50.02
2018-04-25T17:15:07.395Z,49.38
2018-04-25T17:17:35.671Z,48.41
2018-04-25T17:20:07.688Z,48.11
2018-04-25T17:22:35.948Z,48.92
2018-04-25T17:25:07.289Z,48.28
2018-04-25T17:27:36.039Z,48.39
2018-04-25T17:30:08.036Z,50.32
2018-04-25T17:32:36.329Z,49.20
2018-04-25T17:35:06.524Z,49.35
2018-04-25T17:37:34.803Z,50.33
2018-04-25T17:40:06.667Z,49.49
2018-04-25T17:42:35.078Z,49.20
2018-04-25T17:45:06.931Z,49.21
2018-04-25T17:47:35.249Z,49.31
2018-04-25T17:50:06.610Z,48.85
2018-04-25T17:52:35.060Z,50.12
2018-04-25T17:55:07.071Z,51.31
2018-04-25T17:57:35.417Z,50.24
2018-04-25T18:00:06.129Z,49.70
2018-04-25T18:02:34.438Z,49.49
2018-04-25T18:05:06.291Z,49.79
2018-04-25T18:07:34.595Z,49.25
2018-04-25T18:10:06.372Z,49.23
2018-04-25T18:12:35.114Z,49.42
2018-04-25T18:15:06.258Z,49.83
2018-04-25T18:17:34.586Z,49.80
2018-04-25T18:20:06.373Z,49.41
2018-04-25T18:22:34.665Z,51.46
2018-04-25T18:25:06.530Z,50.89
2018-04-25T18:27:34.808Z,51.73
2018-04-25T18:30:06.169Z,52.45
2018-04-25T18:32:34.442Z,52.09
2018-04-25T18:35:07.702Z,53.91
2018-04-25T18:37:36.039Z,53.20
2018-04-25T18:40:07.360Z,53.62
2018-04-25T18:42:35.626Z,53.96
2018-04-25T18:45:07.061Z,53.55
2018-04-25T18:47:35.344Z,54.21
2018-04-25T18:50:07.223Z,54.05
2018-04-25T18:52:35.500Z,53.66
2018-04-25T18:55:07.636Z,53.27
2018-04-25T18:57:35.927Z,53.81
2018-04-25T19:00:07.143Z,54.96
2018-04-25T19:02:36.477Z,54.77
2018-04-25T19:05:06.506Z,54.62
2018-04-25T19:07:34.761Z,54.91
2018-04-25T19:10:06.265Z,54.73
2018-04-25T19:12:34.538Z,54.32
2018-04-25T19:15:06.311Z,52.68
2018-04-25T19:17:34.599Z,52.80
2018-04-25T19:20:06.475Z,52.63
2018-04-25T19:22:34.748Z,52.52
2018-04-25T19:25:06.706Z,52.53
2018-04-25T19:27:35.043Z,52.51
2018-04-25T19:30:06.806Z,52.66
2018-04-25T19:32:35.108Z,53.23
2018-04-25T19:35:06.583Z,54.28
2018-04-25T19:37:34.916Z,55.08
2018-04-25T19:40:06.531Z,55.13
2018-04-25T19:42:34.843Z,54.32
2018-04-25T19:45:06.792Z,54.28
2018-04-25T19:47:35.125Z,55.07
2018-04-25T19:50:06.777Z,55.46
2018-04-25T19:52:35.030Z,55.07
2018-04-25T19:55:09.105Z,55.21
2018-04-25T19:57:37.396Z,56.00
2018-04-25T20:00:07.593Z,55.90
2018-04-25T20:02:35.908Z,56.45
2018-04-25T20:05:06.617Z,55.80
2018-04-25T20:07:34.984Z,55.98
2018-04-25T20:10:06.437Z,57.15
2018-04-25T20:12:34.747Z,57.14
2018-04-25T20:15:06.233Z,57.18
2018-04-25T20:17:34.642Z,57.35
2018-04-25T20:20:06.080Z,55.07
2018-04-25T20:22:34.282Z,54.27
2018-04-25T20:25:06.137Z,53.19
2018-04-25T20:27:34.403Z,53.16
2018-04-25T20:30:06.295Z,52.07
2018-04-25T20:32:34.598Z,50.67
2018-04-25T20:35:06.727Z,49.89
2018-04-25T20:37:35.057Z,49.32
2018-04-25T20:40:06.511Z,48.18
2018-04-25T20:42:34.778Z,47.72
2018-04-25T20:45:06.463Z,47.36
2018-04-25T20:47:34.915Z,48.14
2018-04-25T20:50:07.098Z,47.67
2018-04-25T20:52:35.407Z,48.16
2018-04-25T20:55:08.079Z,47.82
2018-04-25T20:57:36.395Z,47.78
2018-04-25T21:00:09.655Z,47.95
2018-04-25T21:02:38.106Z,47.51
2018-04-25T21:05:07.115Z,47.32
2018-04-25T21:07:35.404Z,47.08
2018-04-25T21:10:06.999Z,47.73
2018-04-25T21:12:36.024Z,47.32
2018-04-25T21:15:08.155Z,47.30
2018-04-25T21:17:36.422Z,47.28
2018-04-25T21:20:06.467Z,47.61
2018-04-25T21:22:34.775Z,47.53
2018-04-25T21:25:06.368Z,47.88
2018-04-25T21:27:34.686Z,48.03
2018-04-25T21:30:08.832Z,48.92
2018-04-25T21:32:37.239Z,48.55
2018-04-25T21:35:06.649Z,48.99
2018-04-25T21:37:34.951Z,49.13
2018-04-25T21:40:06.511Z,48.88
2018-04-25T21:42:34.807Z,49.18
2018-04-25T21:45:06.262Z,49.38
2018-04-25T21:47:35.119Z,49.75
2018-04-25T21:50:06.787Z,50.20
2018-04-25T21:52:35.081Z,50.15
2018-04-25T21:55:06.847Z,49.63
2018-04-25T21:57:35.177Z,50.07
2018-04-25T22:00:09.115Z,50.07
2018-04-25T22:02:37.426Z,51.46
2018-04-25T22:05:06.803Z,51.02
2018-04-25T22:07:35.111Z,51.36
2018-04-25T22:10:06.631Z,51.24
2018-04-25T22:12:34.973Z,51.85
2018-04-25T22:15:06.869Z,51.95
2018-04-25T22:17:35.184Z,51.72
2018-04-25T22:20:07.123Z,52.02
2018-04-25T22:22:35.763Z,52.08
2018-04-25T22:25:07.482Z,52.64
2018-04-25T22:27:35.806Z,51.97
2018-04-25T22:30:05.711Z,52.28
2018-04-25T22:32:34.068Z,52.53
2018-04-25T22:40:32.925Z,53.05
2018-04-25T22:48:31.330Z,53.44
2018-04-25T22:50:59.840Z,53.81
2018-04-25T22:53:28.130Z,53.72
2018-04-25T22:55:56.406Z,53.92
2018-04-25T22:58:24.734Z,53.76
2018-04-25T23:00:52.992Z,54.41
2018-04-25T23:03:21.322Z,54.41
2018-04-25T23:05:49.893Z,54.75
2018-04-25T23:08:18.644Z,54.93
2018-04-25T23:10:46.875Z,55.41
2018-04-25T23:13:15.152Z,55.93
2018-04-25T23:15:43.462Z,56.23
2018-04-25T23:18:11.735Z,55.15
2018-04-25T23:20:40.048Z,55.48
2018-04-25T23:23:08.316Z,55.49
2018-04-25T23:25:36.601Z,56.03
2018-04-25T23:28:04.892Z,55.57
2018-04-25T23:30:33.383Z,55.28
2018-04-25T23:33:01.692Z,55.37
2018-04-25T23:35:29.961Z,54.84
2018-04-25T23:37:58.305Z,54.43
2018-04-25T23:40:26.574Z,54.92
2018-04-25T23:42:54.892Z,54.57
2018-04-25T23:45:23.149Z,54.21
2018-04-25T23:47:51.442Z,54.45
2018-04-25T23:50:19.867Z,54.44
2018-04-25T23:52:48.171Z,54.39
2018-04-25T23:55:16.430Z,54.59
2018-04-25T23:57:44.736Z,55.03
